sensor_id;sensor_type;location;lat;lon;timestamp;temperature;humidity
21823;DHT22;11074;48.596;9.238;2022-07-01T00:01:58;18.50;99.90
21823;DHT22;11074;48.596;9.238;2022-07-01T00:04:24;18.40;99.90
21823;DHT22;11074;48.596;9.238;2022-07-01T00:06:54;18.40;99.90
21823;DHT22;11074;48.596;9.238;2022-07-01T00:09:20;18.50;99.90
21823;DHT22;11074;48.596;9.238;2022-07-01T00:11:46;18.60;99.90
21823;DHT22;11074;48.596;9.238;2022-07-01T00:14:13;18.70;99.90
21823;DHT22;11074;48.596;9.238;2022-07-01T00:16:38;18.70;99.90
21823;DHT22;11074;48.596;9.238;2022-07-01T00:19:05;18.70;99.90
21823;DHT22;11074;48.596;9.238;2022-07-01T00:21:31;18.70;99.90
21823;DHT22;11074;48.596;9.238;2022-07-01T00:23:57;18.50;99.90
21823;DHT22;11074;48.596;9.238;2022-07-01T00:26:23;18.50;99.90
21823;DHT22;11074;48.596;9.238;2022-07-01T00:28:49;18.40;99.90
21823;DHT22;11074;48.596;9.238;2022-07-01T00:31:14;18.30;99.90
21823;DHT22;11074;48.596;9.238;2022-07-01T00:33:40;18.30;99.90
21823;DHT22;11074;48.596;9.238;2022-07-01T00:36:06;18.20;99.90
21823;DHT22;11074;48.596;9.238;2022-07-01T00:38:32;18.10;99.90
21823;DHT22;11074;48.596;9.238;2022-07-01T00:40:58;18.20;99.90
21823;DHT22;11074;48.596;9.238;2022-07-01T00:43:23;18.20;99.90
21823;DHT22;11074;48.596;9.238;2022-07-01T00:45:51;18.20;99.90
21823;DHT22;11074;48.596;9.238;2022-07-01T00:48:19;18.10;99.90
21823;DHT22;11074;48.596;9.238;2022-07-01T00:50:46;18.10;99.90
21823;DHT22;11074;48.596;9.238;2022-07-01T00:53:14;18.10;99.90
21823;DHT22;11074;48.596;9.238;2022-07-01T00:55:43;18.10;99.90
21823;DHT22;11074;48.596;9.238;2022-07-01T00:58:09;18.10;99.90
21823;DHT22;11074;48.596;9.238;2022-07-01T01:00:36;18.10;99.90
21823;DHT22;11074;48.596;9.238;2022-07-01T01:03:06;18.00;99.90
21823;DHT22;11074;48.596;9.238;2022-07-01T01:05:36;18.00;99.90
21823;DHT22;11074;48.596;9.238;2022-07-01T01:08:08;17.90;99.90
21823;DHT22;11074;48.596;9.238;2022-07-01T01:10:36;17.70;99.90
21823;DHT22;11074;48.596;9.238;2022-07-01T01:13:03;17.80;99.90
21823;DHT22;11074;48.596;9.238;2022-07-01T01:15:30;17.80;99.90
21823;DHT22;11074;48.596;9.238;2022-07-01T01:17:56;17.80;99.90
21823;DHT22;11074;48.596;9.238;2022-07-01T01:20:22;17.80;99.90
21823;DHT22;11074;48.596;9.238;2022-07-01T01:22:48;17.90;99.90
21823;DHT22;11074;48.596;9.238;2022-07-01T01:25:15;17.80;99.90
21823;DHT22;11074;48.596;9.238;2022-07-01T01:27:42;17.70;99.90
21823;DHT22;11074;48.596;9.238;2022-07-01T01:30:10;17.70;99.90
21823;DHT22;11074;48.596;9.238;2022-07-01T01:32:41;17.50;99.90
21823;DHT22;11074;48.596;9.238;2022-07-01T01:35:09;17.50;99.90
21823;DHT22;11074;48.596;9.238;2022-07-01T01:37:35;17.50;99.90
21823;DHT22;11074;48.596;9.238;2022-07-01T01:40:02;17.60;99.90
21823;DHT22;11074;48.596;9.238;2022-07-01T01:42:29;17.60;99.90
21823;DHT22;11074;48.596;9.238;2022-07-01T01:44:56;17.70;99.90
21823;DHT22;11074;48.596;9.238;2022-07-01T01:47:22;17.70;99.90
21823;DHT22;11074;48.596;9.238;2022-07-01T01:49:47;17.60;99.90
21823;DHT22;11074;48.596;9.238;2022-07-01T01:52:13;17.40;99.90
21823;DHT22;11074;48.596;9.238;2022-07-01T01:54:39;17.40;99.90
21823;DHT22;11074;48.596;9.238;2022-07-01T01:57:05;17.40;99.90
21823;DHT22;11074;48.596;9.238;2022-07-01T01:59:30;17.50;99.90
21823;DHT22;11074;48.596;9.238;2022-07-01T02:01:56;17.60;99.90
21823;DHT22;11074;48.596;9.238;2022-07-01T02:04:22;17.50;99.90
21823;DHT22;11074;48.596;9.238;2022-07-01T02:06:49;17.40;99.90
21823;DHT22;11074;48.596;9.238;2022-07-01T02:09:15;17.40;99.90
21823;DHT22;11074;48.596;9.238;2022-07-01T02:11:42;17.50;99.90
21823;DHT22;11074;48.596;9.238;2022-07-01T02:14:07;17.50;99.90
21823;DHT22;11074;48.596;9.238;2022-07-01T02:16:33;17.60;99.90
21823;DHT22;11074;48.596;9.238;2022-07-01T02:19:00;17.60;99.90
21823;DHT22;11074;48.596;9.238;2022-07-01T02:21:26;17.70;99.90
21823;DHT22;11074;48.596;9.238;2022-07-01T02:23:51;17.70;99.90
21823;DHT22;11074;48.596;9.238;2022-07-01T02:26:17;17.80;99.90
21823;DHT22;11074;48.596;9.238;2022-07-01T02:28:44;17.60;99.90
21823;DHT22;11074;48.596;9.238;2022-07-01T02:31:09;17.60;99.90
21823;DHT22;11074;48.596;9.238;2022-07-01T02:33:35;17.60;99.90
21823;DHT22;11074;48.596;9.238;2022-07-01T02:36:01;17.60;99.90
21823;DHT22;11074;48.596;9.238;2022-07-01T02:38:27;17.50;99.90
21823;DHT22;11074;48.596;9.238;2022-07-01T02:40:52;17.20;99.90
21823;DHT22;11074;48.596;9.238;2022-07-01T02:43:18;17.30;99.90
21823;DHT22;11074;48.596;9.238;2022-07-01T02:45:44;17.30;99.90
21823;DHT22;11074;48.596;9.238;2022-07-01T02:48:09;17.40;99.90
21823;DHT22;11074;48.596;9.238;2022-07-01T02:50:35;17.40;99.90
21823;DHT22;11074;48.596;9.238;2022-07-01T02:53:01;17.30;99.90
21823;DHT22;11074;48.596;9.238;2022-07-01T02:55:27;17.10;99.90
21823;DHT22;11074;48.596;9.238;2022-07-01T02:57:55;16.80;99.90
21823;DHT22;11074;48.596;9.238;2022-07-01T03:00:22;17.00;99.90
21823;DHT22;11074;48.596;9.238;2022-07-01T03:02:48;17.00;99.90
21823;DHT22;11074;48.596;9.238;2022-07-01T03:05:14;17.00;99.90
21823;DHT22;11074;48.596;9.238;2022-07-01T03:07:40;17.10;99.90
21823;DHT22;11074;48.596;9.238;2022-07-01T03:10:08;17.00;99.90
21823;DHT22;11074;48.596;9.238;2022-07-01T03:12:34;17.00;99.90
21823;DHT22;11074;48.596;9.238;2022-07-01T03:15:09;17.00;99.90
21823;DHT22;11074;48.596;9.238;2022-07-01T03:17:38;17.00;99.90
21823;DHT22;11074;48.596;9.238;2022-07-01T03:20:07;17.00;99.90
21823;DHT22;11074;48.596;9.238;2022-07-01T03:22:35;16.90;99.90
21823;DHT22;11074;48.596;9.238;2022-07-01T03:25:02;16.80;99.90
21823;DHT22;11074;48.596;9.238;2022-07-01T03:27:28;16.80;99.90
21823;DHT22;11074;48.596;9.238;2022-07-01T03:29:56;16.50;99.90
21823;DHT22;11074;48.596;9.238;2022-07-01T03:32:24;16.50;99.90
21823;DHT22;11074;48.596;9.238;2022-07-01T03:34:51;16.50;99.90
21823;DHT22;11074;48.596;9.238;2022-07-01T03:37:19;16.70;99.90
21823;DHT22;11074;48.596;9.238;2022-07-01T03:39:46;16.80;99.90
21823;DHT22;11074;48.596;9.238;2022-07-01T03:42:12;16.80;99.90
21823;DHT22;11074;48.596;9.238;2022-07-01T03:44:38;16.70;99.90
21823;DHT22;11074;48.596;9.238;2022-07-01T03:47:05;16.60;99.90
21823;DHT22;11074;48.596;9.238;2022-07-01T03:49:45;16.60;99.90
21823;DHT22;11074;48.596;9.238;2022-07-01T03:52:11;16.70;99.90
21823;DHT22;11074;48.596;9.238;2022-07-01T03:54:37;16.70;99.90
21823;DHT22;11074;48.596;9.238;2022-07-01T03:57:08;16.90;99.90
21823;DHT22;11074;48.596;9.238;2022-07-01T03:59:36;16.70;99.90
21823;DHT22;11074;48.596;9.238;2022-07-01T04:02:04;16.60;99.90
21823;DHT22;11074;48.596;9.238;2022-07-01T04:04:31;16.50;99.90
21823;DHT22;11074;48.596;9.238;2022-07-01T04:07:01;16.50;99.90
21823;DHT22;11074;48.596;9.238;2022-07-01T04:09:30;16.40;99.90
21823;DHT22;11074;48.596;9.238;2022-07-01T04:11:57;16.50;99.90
21823;DHT22;11074;48.596;9.238;2022-07-01T04:14:23;16.50;99.90
21823;DHT22;11074;48.596;9.238;2022-07-01T04:16:52;16.40;99.90
21823;DHT22;11074;48.596;9.238;2022-07-01T04:19:18;16.40;99.90
21823;DHT22;11074;48.596;9.238;2022-07-01T04:21:45;16.50;99.90
21823;DHT22;11074;48.596;9.238;2022-07-01T04:24:29;16.50;99.90
21823;DHT22;11074;48.596;9.238;2022-07-01T04:26:58;16.50;99.90
21823;DHT22;11074;48.596;9.238;2022-07-01T04:29:25;16.50;99.90
21823;DHT22;11074;48.596;9.238;2022-07-01T04:31:52;16.50;99.90
21823;DHT22;11074;48.596;9.238;2022-07-01T04:34:18;16.40;99.90
21823;DHT22;11074;48.596;9.238;2022-07-01T04:36:44;16.40;99.90
21823;DHT22;11074;48.596;9.238;2022-07-01T04:39:10;16.40;99.90
21823;DHT22;11074;48.596;9.238;2022-07-01T04:41:35;16.50;99.90
21823;DHT22;11074;48.596;9.238;2022-07-01T04:44:20;16.50;99.90
21823;DHT22;11074;48.596;9.238;2022-07-01T04:46:46;16.30;99.90
21823;DHT22;11074;48.596;9.238;2022-07-01T04:49:12;16.20;99.90
21823;DHT22;11074;48.596;9.238;2022-07-01T04:51:38;16.10;99.90
21823;DHT22;11074;48.596;9.238;2022-07-01T04:54:04;16.00;99.90
21823;DHT22;11074;48.596;9.238;2022-07-01T04:56:32;16.10;99.90
21823;DHT22;11074;48.596;9.238;2022-07-01T04:58:59;16.10;99.90
21823;DHT22;11074;48.596;9.238;2022-07-01T05:01:26;16.00;99.90
21823;DHT22;11074;48.596;9.238;2022-07-01T05:03:52;15.80;99.90
21823;DHT22;11074;48.596;9.238;2022-07-01T05:06:17;15.70;99.90
21823;DHT22;11074;48.596;9.238;2022-07-01T05:08:43;15.70;99.90
21823;DHT22;11074;48.596;9.238;2022-07-01T05:11:12;15.80;99.90
21823;DHT22;11074;48.596;9.238;2022-07-01T05:13:38;15.80;99.90
21823;DHT22;11074;48.596;9.238;2022-07-01T05:16:04;15.80;99.90
21823;DHT22;11074;48.596;9.238;2022-07-01T05:18:30;15.80;99.90
21823;DHT22;11074;48.596;9.238;2022-07-01T05:21:15;15.90;99.90
21823;DHT22;11074;48.596;9.238;2022-07-01T05:23:59;16.00;99.90
21823;DHT22;11074;48.596;9.238;2022-07-01T05:26:25;16.10;99.90
21823;DHT22;11074;48.596;9.238;2022-07-01T05:28:52;16.20;99.90
21823;DHT22;11074;48.596;9.238;2022-07-01T05:31:19;16.20;99.90
21823;DHT22;11074;48.596;9.238;2022-07-01T05:33:46;16.10;99.90
21823;DHT22;11074;48.596;9.238;2022-07-01T05:36:12;16.00;99.90
21823;DHT22;11074;48.596;9.238;2022-07-01T05:38:38;16.10;99.90
21823;DHT22;11074;48.596;9.238;2022-07-01T05:41:04;16.10;99.90
21823;DHT22;11074;48.596;9.238;2022-07-01T05:43:31;16.20;99.90
21823;DHT22;11074;48.596;9.238;2022-07-01T05:45:56;16.20;99.90
21823;DHT22;11074;48.596;9.238;2022-07-01T05:48:22;16.10;99.90
21823;DHT22;11074;48.596;9.238;2022-07-01T05:50:49;16.10;99.90
21823;DHT22;11074;48.596;9.238;2022-07-01T05:53:15;16.20;99.90
21823;DHT22;11074;48.596;9.238;2022-07-01T05:55:41;16.20;99.90
21823;DHT22;11074;48.596;9.238;2022-07-01T05:58:08;16.30;99.90
21823;DHT22;11074;48.596;9.238;2022-07-01T06:00:35;16.30;99.90
21823;DHT22;11074;48.596;9.238;2022-07-01T06:03:01;16.40;99.90
21823;DHT22;11074;48.596;9.238;2022-07-01T06:05:27;16.30;99.90
21823;DHT22;11074;48.596;9.238;2022-07-01T06:07:53;16.40;99.90
21823;DHT22;11074;48.596;9.238;2022-07-01T06:10:18;16.40;99.90
21823;DHT22;11074;48.596;9.238;2022-07-01T06:12:44;16.40;99.90
21823;DHT22;11074;48.596;9.238;2022-07-01T06:15:11;16.40;99.90
21823;DHT22;11074;48.596;9.238;2022-07-01T06:17:39;16.40;99.90
21823;DHT22;11074;48.596;9.238;2022-07-01T06:20:07;16.30;99.90
21823;DHT22;11074;48.596;9.238;2022-07-01T06:22:33;16.30;99.90
21823;DHT22;11074;48.596;9.238;2022-07-01T06:25:01;16.40;99.90
21823;DHT22;11074;48.596;9.238;2022-07-01T06:27:28;16.40;99.90
21823;DHT22;11074;48.596;9.238;2022-07-01T06:29:54;16.30;99.90
21823;DHT22;11074;48.596;9.238;2022-07-01T06:32:26;16.40;99.90
21823;DHT22;11074;48.596;9.238;2022-07-01T06:34:51;16.30;99.90
21823;DHT22;11074;48.596;9.238;2022-07-01T06:37:17;16.30;99.90
21823;DHT22;11074;48.596;9.238;2022-07-01T06:39:45;16.20;99.90
21823;DHT22;11074;48.596;9.238;2022-07-01T06:42:11;16.20;99.90
21823;DHT22;11074;48.596;9.238;2022-07-01T06:44:36;16.30;99.90
21823;DHT22;11074;48.596;9.238;2022-07-01T06:47:02;16.20;99.90
21823;DHT22;11074;48.596;9.238;2022-07-01T06:49:28;15.90;99.90
21823;DHT22;11074;48.596;9.238;2022-07-01T06:51:54;15.70;99.90
21823;DHT22;11074;48.596;9.238;2022-07-01T06:54:19;15.70;99.90
21823;DHT22;11074;48.596;9.238;2022-07-01T06:56:45;15.60;99.90
21823;DHT22;11074;48.596;9.238;2022-07-01T06:59:11;15.50;99.90
21823;DHT22;11074;48.596;9.238;2022-07-01T07:01:37;15.50;99.90
21823;DHT22;11074;48.596;9.238;2022-07-01T07:04:03;15.40;99.90
21823;DHT22;11074;48.596;9.238;2022-07-01T07:06:29;15.40;99.90
21823;DHT22;11074;48.596;9.238;2022-07-01T07:08:54;15.20;99.90
21823;DHT22;11074;48.596;9.238;2022-07-01T07:11:20;15.20;99.90
21823;DHT22;11074;48.596;9.238;2022-07-01T07:13:46;15.20;99.90
21823;DHT22;11074;48.596;9.238;2022-07-01T07:16:11;15.20;99.90
21823;DHT22;11074;48.596;9.238;2022-07-01T07:18:37;15.10;99.90
21823;DHT22;11074;48.596;9.238;2022-07-01T07:21:03;15.20;99.90
21823;DHT22;11074;48.596;9.238;2022-07-01T07:23:29;15.20;99.90
21823;DHT22;11074;48.596;9.238;2022-07-01T07:25:55;15.20;99.90
21823;DHT22;11074;48.596;9.238;2022-07-01T07:28:21;15.20;99.90
21823;DHT22;11074;48.596;9.238;2022-07-01T07:30:47;15.30;99.90
21823;DHT22;11074;48.596;9.238;2022-07-01T07:33:12;15.20;99.90
21823;DHT22;11074;48.596;9.238;2022-07-01T07:35:38;15.10;99.90
21823;DHT22;11074;48.596;9.238;2022-07-01T07:38:04;15.00;99.90
21823;DHT22;11074;48.596;9.238;2022-07-01T07:40:29;15.00;99.90
21823;DHT22;11074;48.596;9.238;2022-07-01T07:42:55;15.10;99.90
21823;DHT22;11074;48.596;9.238;2022-07-01T07:45:21;15.20;99.90
21823;DHT22;11074;48.596;9.238;2022-07-01T07:47:47;15.40;99.90
21823;DHT22;11074;48.596;9.238;2022-07-01T07:50:14;15.50;99.90
21823;DHT22;11074;48.596;9.238;2022-07-01T07:52:41;15.60;99.90
21823;DHT22;11074;48.596;9.238;2022-07-01T07:55:08;15.70;99.90
21823;DHT22;11074;48.596;9.238;2022-07-01T07:57:36;15.70;99.90
21823;DHT22;11074;48.596;9.238;2022-07-01T08:00:03;15.70;99.90
21823;DHT22;11074;48.596;9.238;2022-07-01T08:02:30;15.70;99.90
21823;DHT22;11074;48.596;9.238;2022-07-01T08:04:56;15.70;99.90
21823;DHT22;11074;48.596;9.238;2022-07-01T08:07:21;15.70;99.90
21823;DHT22;11074;48.596;9.238;2022-07-01T08:09:47;15.80;99.90
21823;DHT22;11074;48.596;9.238;2022-07-01T08:12:15;15.90;99.90
21823;DHT22;11074;48.596;9.238;2022-07-01T08:14:41;15.80;99.90
21823;DHT22;11074;48.596;9.238;2022-07-01T08:17:06;15.90;99.90
21823;DHT22;11074;48.596;9.238;2022-07-01T08:19:32;15.80;99.90
21823;DHT22;11074;48.596;9.238;2022-07-01T08:21:58;15.80;99.90
21823;DHT22;11074;48.596;9.238;2022-07-01T08:24:24;15.80;99.90
21823;DHT22;11074;48.596;9.238;2022-07-01T08:26:50;15.70;99.90
21823;DHT22;11074;48.596;9.238;2022-07-01T08:29:16;15.60;99.90
21823;DHT22;11074;48.596;9.238;2022-07-01T08:31:41;15.70;99.90
21823;DHT22;11074;48.596;9.238;2022-07-01T08:34:07;15.80;99.90
21823;DHT22;11074;48.596;9.238;2022-07-01T08:36:35;15.90;99.90
21823;DHT22;11074;48.596;9.238;2022-07-01T08:39:01;15.80;99.90
21823;DHT22;11074;48.596;9.238;2022-07-01T08:41:28;15.90;99.90
21823;DHT22;11074;48.596;9.238;2022-07-01T08:43:53;15.90;99.90
21823;DHT22;11074;48.596;9.238;2022-07-01T08:46:21;15.80;99.90
21823;DHT22;11074;48.596;9.238;2022-07-01T08:48:48;15.80;99.90
21823;DHT22;11074;48.596;9.238;2022-07-01T08:51:14;15.80;99.90
21823;DHT22;11074;48.596;9.238;2022-07-01T08:53:40;15.80;99.90
21823;DHT22;11074;48.596;9.238;2022-07-01T08:56:07;15.80;99.90
21823;DHT22;11074;48.596;9.238;2022-07-01T08:58:52;15.80;99.90
21823;DHT22;11074;48.596;9.238;2022-07-01T09:01:21;15.90;99.90
21823;DHT22;11074;48.596;9.238;2022-07-01T09:03:50;15.90;99.90
21823;DHT22;11074;48.596;9.238;2022-07-01T09:08:46;15.90;99.90
21823;DHT22;11074;48.596;9.238;2022-07-01T09:11:23;15.90;99.90
21823;DHT22;11074;48.596;9.238;2022-07-01T09:14:10;15.90;99.90
21823;DHT22;11074;48.596;9.238;2022-07-01T09:17:17;15.90;99.90
21823;DHT22;11074;48.596;9.238;2022-07-01T09:19:49;16.00;99.90
21823;DHT22;11074;48.596;9.238;2022-07-01T09:22:16;16.00;99.90
21823;DHT22;11074;48.596;9.238;2022-07-01T09:24:43;15.90;99.90
21823;DHT22;11074;48.596;9.238;2022-07-01T09:27:14;15.90;99.90
21823;DHT22;11074;48.596;9.238;2022-07-01T09:29:46;16.00;99.90
21823;DHT22;11074;48.596;9.238;2022-07-01T09:32:19;16.10;99.90
21823;DHT22;11074;48.596;9.238;2022-07-01T09:34:51;16.10;99.90
21823;DHT22;11074;48.596;9.238;2022-07-01T09:37:20;16.20;99.90
21823;DHT22;11074;48.596;9.238;2022-07-01T09:39:51;16.10;99.90
21823;DHT22;11074;48.596;9.238;2022-07-01T09:42:20;15.90;99.90
21823;DHT22;11074;48.596;9.238;2022-07-01T09:47:28;15.70;99.90
21823;DHT22;11074;48.596;9.238;2022-07-01T09:49:56;15.60;99.90
21823;DHT22;11074;48.596;9.238;2022-07-01T09:52:22;15.60;99.90
21823;DHT22;11074;48.596;9.238;2022-07-01T09:54:50;15.70;99.90
21823;DHT22;11074;48.596;9.238;2022-07-01T09:57:17;15.80;99.90
21823;DHT22;11074;48.596;9.238;2022-07-01T09:59:44;15.80;99.90
21823;DHT22;11074;48.596;9.238;2022-07-01T10:02:11;15.90;99.90
21823;DHT22;11074;48.596;9.238;2022-07-01T10:04:42;15.90;99.90
21823;DHT22;11074;48.596;9.238;2022-07-01T10:10:57;16.00;99.90
21823;DHT22;11074;48.596;9.238;2022-07-01T10:13:33;16.00;99.90
21823;DHT22;11074;48.596;9.238;2022-07-01T10:16:02;16.00;99.90
21823;DHT22;11074;48.596;9.238;2022-07-01T10:18:29;15.90;99.90
21823;DHT22;11074;48.596;9.238;2022-07-01T10:20:56;15.80;99.90
21823;DHT22;11074;48.596;9.238;2022-07-01T10:23:27;15.80;99.90
21823;DHT22;11074;48.596;9.238;2022-07-01T10:26:03;15.80;99.90
21823;DHT22;11074;48.596;9.238;2022-07-01T10:28:42;15.80;99.90
21823;DHT22;11074;48.596;9.238;2022-07-01T10:31:13;15.80;99.90
21823;DHT22;11074;48.596;9.238;2022-07-01T10:33:56;16.00;99.90
21823;DHT22;11074;48.596;9.238;2022-07-01T10:41:30;16.00;99.90
21823;DHT22;11074;48.596;9.238;2022-07-01T10:43:58;16.10;99.90
21823;DHT22;11074;48.596;9.238;2022-07-01T10:46:38;16.20;99.90
21823;DHT22;11074;48.596;9.238;2022-07-01T10:49:19;16.30;99.90
21823;DHT22;11074;48.596;9.238;2022-07-01T10:51:51;16.30;99.90
21823;DHT22;11074;48.596;9.238;2022-07-01T10:59:51;16.20;99.90
21823;DHT22;11074;48.596;9.238;2022-07-01T11:02:36;16.20;99.90
21823;DHT22;11074;48.596;9.238;2022-07-01T11:05:07;16.30;99.90
21823;DHT22;11074;48.596;9.238;2022-07-01T11:07:38;16.30;99.90
21823;DHT22;11074;48.596;9.238;2022-07-01T11:10:09;16.30;99.90
21823;DHT22;11074;48.596;9.238;2022-07-01T11:12:38;16.30;99.90
21823;DHT22;11074;48.596;9.238;2022-07-01T11:15:05;16.30;99.90
21823;DHT22;11074;48.596;9.238;2022-07-01T11:17:33;16.30;99.90
21823;DHT22;11074;48.596;9.238;2022-07-01T11:20:00;16.30;99.90
21823;DHT22;11074;48.596;9.238;2022-07-01T11:22:34;16.30;99.90
21823;DHT22;11074;48.596;9.238;2022-07-01T11:25:06;16.50;99.90
21823;DHT22;11074;48.596;9.238;2022-07-01T11:27:34;16.60;99.90
21823;DHT22;11074;48.596;9.238;2022-07-01T11:30:06;16.70;99.90
21823;DHT22;11074;48.596;9.238;2022-07-01T11:32:44;16.80;99.90
21823;DHT22;11074;48.596;9.238;2022-07-01T11:35:17;16.90;99.90
21823;DHT22;11074;48.596;9.238;2022-07-01T11:38:18;17.00;99.90
21823;DHT22;11074;48.596;9.238;2022-07-01T11:41:10;17.00;99.90
21823;DHT22;11074;48.596;9.238;2022-07-01T11:43:44;17.10;99.90
21823;DHT22;11074;48.596;9.238;2022-07-01T11:46:10;17.10;99.90
21823;DHT22;11074;48.596;9.238;2022-07-01T11:48:44;17.10;99.90
21823;DHT22;11074;48.596;9.238;2022-07-01T11:51:19;17.20;99.90
21823;DHT22;11074;48.596;9.238;2022-07-01T11:53:51;17.10;99.90
21823;DHT22;11074;48.596;9.238;2022-07-01T11:56:31;17.10;99.90
21823;DHT22;11074;48.596;9.238;2022-07-01T11:58:59;17.00;99.90
21823;DHT22;11074;48.596;9.238;2022-07-01T12:01:32;17.00;99.90
21823;DHT22;11074;48.596;9.238;2022-07-01T12:04:05;16.90;99.90
21823;DHT22;11074;48.596;9.238;2022-07-01T12:06:35;16.90;99.90
21823;DHT22;11074;48.596;9.238;2022-07-01T12:09:04;16.90;99.90
21823;DHT22;11074;48.596;9.238;2022-07-01T12:11:29;16.90;99.90
21823;DHT22;11074;48.596;9.238;2022-07-01T12:13:56;16.90;99.90
21823;DHT22;11074;48.596;9.238;2022-07-01T12:16:23;16.90;99.90
21823;DHT22;11074;48.596;9.238;2022-07-01T12:18:58;16.90;99.90
21823;DHT22;11074;48.596;9.238;2022-07-01T12:21:26;16.90;99.90
21823;DHT22;11074;48.596;9.238;2022-07-01T12:24:08;17.00;99.90
21823;DHT22;11074;48.596;9.238;2022-07-01T12:26:46;17.10;99.90
21823;DHT22;11074;48.596;9.238;2022-07-01T12:29:52;17.20;99.90
21823;DHT22;11074;48.596;9.238;2022-07-01T12:32:20;17.30;99.90
21823;DHT22;11074;48.596;9.238;2022-07-01T12:34:54;17.30;99.90
21823;DHT22;11074;48.596;9.238;2022-07-01T12:37:35;17.40;99.90
21823;DHT22;11074;48.596;9.238;2022-07-01T12:40:08;17.30;99.90
21823;DHT22;11074;48.596;9.238;2022-07-01T12:42:46;17.30;99.90
21823;DHT22;11074;48.596;9.238;2022-07-01T12:45:15;17.30;99.90
21823;DHT22;11074;48.596;9.238;2022-07-01T12:47:45;17.30;99.90
21823;DHT22;11074;48.596;9.238;2022-07-01T12:50:39;17.30;99.90
21823;DHT22;11074;48.596;9.238;2022-07-01T12:53:10;17.30;99.90
21823;DHT22;11074;48.596;9.238;2022-07-01T12:55:39;17.20;99.90
21823;DHT22;11074;48.596;9.238;2022-07-01T12:58:11;17.20;99.90
21823;DHT22;11074;48.596;9.238;2022-07-01T13:00:40;17.30;99.90
21823;DHT22;11074;48.596;9.238;2022-07-01T13:03:07;17.20;99.90
21823;DHT22;11074;48.596;9.238;2022-07-01T13:05:34;17.20;99.90
21823;DHT22;11074;48.596;9.238;2022-07-01T13:08:02;17.20;99.90
21823;DHT22;11074;48.596;9.238;2022-07-01T13:10:29;17.20;99.90
21823;DHT22;11074;48.596;9.238;2022-07-01T13:12:55;17.30;99.90
21823;DHT22;11074;48.596;9.238;2022-07-01T13:15:21;17.30;99.90
21823;DHT22;11074;48.596;9.238;2022-07-01T13:17:48;17.40;99.90
21823;DHT22;11074;48.596;9.238;2022-07-01T13:20:15;17.60;99.90
21823;DHT22;11074;48.596;9.238;2022-07-01T13:22:42;17.90;99.90
21823;DHT22;11074;48.596;9.238;2022-07-01T13:25:09;18.20;99.90
21823;DHT22;11074;48.596;9.238;2022-07-01T13:27:36;18.20;99.90
21823;DHT22;11074;48.596;9.238;2022-07-01T13:30:04;18.30;99.90
21823;DHT22;11074;48.596;9.238;2022-07-01T13:32:31;18.20;99.90
21823;DHT22;11074;48.596;9.238;2022-07-01T13:34:57;18.30;99.90
21823;DHT22;11074;48.596;9.238;2022-07-01T13:37:23;18.40;99.90
21823;DHT22;11074;48.596;9.238;2022-07-01T13:39:48;18.30;99.90
21823;DHT22;11074;48.596;9.238;2022-07-01T13:42:14;18.30;99.90
21823;DHT22;11074;48.596;9.238;2022-07-01T13:44:40;18.30;99.90
21823;DHT22;11074;48.596;9.238;2022-07-01T13:47:06;18.30;99.90
21823;DHT22;11074;48.596;9.238;2022-07-01T13:49:35;18.40;99.90
21823;DHT22;11074;48.596;9.238;2022-07-01T13:52:02;18.50;99.90
21823;DHT22;11074;48.596;9.238;2022-07-01T13:54:28;18.60;99.90
21823;DHT22;11074;48.596;9.238;2022-07-01T13:56:53;18.50;99.90
21823;DHT22;11074;48.596;9.238;2022-07-01T13:59:19;18.50;99.90
21823;DHT22;11074;48.596;9.238;2022-07-01T14:01:45;18.60;99.90
21823;DHT22;11074;48.596;9.238;2022-07-01T14:04:10;18.70;99.90
21823;DHT22;11074;48.596;9.238;2022-07-01T14:06:36;18.90;99.90
21823;DHT22;11074;48.596;9.238;2022-07-01T14:09:03;19.10;99.90
21823;DHT22;11074;48.596;9.238;2022-07-01T14:11:29;19.20;99.90
21823;DHT22;11074;48.596;9.238;2022-07-01T14:13:54;19.40;99.90
21823;DHT22;11074;48.596;9.238;2022-07-01T14:16:20;19.50;99.90
21823;DHT22;11074;48.596;9.238;2022-07-01T14:18:46;19.50;99.90
21823;DHT22;11074;48.596;9.238;2022-07-01T14:21:12;19.50;99.90
21823;DHT22;11074;48.596;9.238;2022-07-01T14:23:39;19.50;99.90
21823;DHT22;11074;48.596;9.238;2022-07-01T14:26:04;19.60;99.90
21823;DHT22;11074;48.596;9.238;2022-07-01T14:28:30;19.70;99.90
21823;DHT22;11074;48.596;9.238;2022-07-01T14:30:56;19.70;99.90
21823;DHT22;11074;48.596;9.238;2022-07-01T14:33:22;19.80;99.90
21823;DHT22;11074;48.596;9.238;2022-07-01T14:35:47;20.00;99.90
21823;DHT22;11074;48.596;9.238;2022-07-01T14:38:16;20.20;99.90
21823;DHT22;11074;48.596;9.238;2022-07-01T14:40:41;20.20;99.90
21823;DHT22;11074;48.596;9.238;2022-07-01T14:43:07;20.30;99.90
21823;DHT22;11074;48.596;9.238;2022-07-01T14:45:33;20.20;99.90
21823;DHT22;11074;48.596;9.238;2022-07-01T14:47:59;20.20;99.90
21823;DHT22;11074;48.596;9.238;2022-07-01T14:50:24;20.20;99.90
21823;DHT22;11074;48.596;9.238;2022-07-01T14:52:50;20.20;99.90
21823;DHT22;11074;48.596;9.238;2022-07-01T14:55:16;20.20;99.90
21823;DHT22;11074;48.596;9.238;2022-07-01T14:57:43;20.30;99.90
21823;DHT22;11074;48.596;9.238;2022-07-01T15:00:09;20.30;99.90
21823;DHT22;11074;48.596;9.238;2022-07-01T15:02:37;20.40;99.90
21823;DHT22;11074;48.596;9.238;2022-07-01T15:05:03;20.50;99.90
21823;DHT22;11074;48.596;9.238;2022-07-01T15:07:29;20.50;99.90
21823;DHT22;11074;48.596;9.238;2022-07-01T15:09:55;20.50;99.90
21823;DHT22;11074;48.596;9.238;2022-07-01T15:12:22;20.50;99.90
21823;DHT22;11074;48.596;9.238;2022-07-01T15:14:48;20.60;99.90
21823;DHT22;11074;48.596;9.238;2022-07-01T15:17:14;20.70;99.90
21823;DHT22;11074;48.596;9.238;2022-07-01T15:19:40;20.80;99.90
21823;DHT22;11074;48.596;9.238;2022-07-01T15:22:06;21.00;99.90
21823;DHT22;11074;48.596;9.238;2022-07-01T15:24:33;21.00;99.90
21823;DHT22;11074;48.596;9.238;2022-07-01T15:27:01;20.90;99.90
21823;DHT22;11074;48.596;9.238;2022-07-01T15:29:28;20.70;99.90
21823;DHT22;11074;48.596;9.238;2022-07-01T15:31:54;20.40;99.90
21823;DHT22;11074;48.596;9.238;2022-07-01T15:34:20;20.30;99.90
21823;DHT22;11074;48.596;9.238;2022-07-01T15:36:46;20.30;99.90
21823;DHT22;11074;48.596;9.238;2022-07-01T15:39:12;20.30;99.90
21823;DHT22;11074;48.596;9.238;2022-07-01T15:41:39;20.40;99.90
21823;DHT22;11074;48.596;9.238;2022-07-01T15:44:06;20.50;99.90
21823;DHT22;11074;48.596;9.238;2022-07-01T15:46:32;20.60;99.90
21823;DHT22;11074;48.596;9.238;2022-07-01T15:48:58;20.70;99.90
21823;DHT22;11074;48.596;9.238;2022-07-01T15:51:23;20.70;99.90
21823;DHT22;11074;48.596;9.238;2022-07-01T15:53:54;20.80;99.90
21823;DHT22;11074;48.596;9.238;2022-07-01T15:56:26;20.80;99.90